createdAt,value
2024-02-13T00:00:12.089Z,84.82
2024-02-13T00:03:00.534Z,84.86
2024-02-13T00:05:29.129Z,84.91
2024-02-13T00:07:57.809Z,84.88
2024-02-13T00:10:26.056Z,84.62
2024-02-13T00:12:54.361Z,84.58
2024-02-13T00:15:22.641Z,84.65
2024-02-13T00:17:52.601Z,84.72
2024-02-13T00:20:21.439Z,84.66
2024-02-13T00:22:50.296Z,84.66
2024-02-13T00:25:19.943Z,84.71
2024-02-13T00:27:48.502Z,84.75
2024-02-13T00:30:16.680Z,84.77
2024-02-13T00:32:45.746Z,84.72
2024-02-13T00:35:14.770Z,84.59
2024-02-13T00:37:43.340Z,84.40
2024-02-13T00:40:11.813Z,84.20
2024-02-13T00:42:40.505Z,84.12
2024-02-13T00:45:12.744Z,84.04
2024-02-13T00:47:43.891Z,84.02
2024-02-13T00:50:12.390Z,84.08
2024-02-13T00:52:42.161Z,84.04
2024-02-13T00:55:11.046Z,83.59
2024-02-13T00:57:39.785Z,83.52
2024-02-13T01:00:13.031Z,83.63
2024-02-13T01:02:41.557Z,83.78
2024-02-13T01:05:10.895Z,83.90
2024-02-13T01:07:39.264Z,83.73
2024-02-13T01:10:08.498Z,83.65
2024-02-13T01:12:36.761Z,83.71
2024-02-13T01:15:05.886Z,83.71
2024-02-13T01:17:34.229Z,83.50
2024-02-13T01:20:02.728Z,83.45
2024-02-13T01:22:30.859Z,83.56
2024-02-13T01:24:59.603Z,83.57
2024-02-13T01:27:27.852Z,83.54
2024-02-13T01:29:56.120Z,83.53
2024-02-13T01:32:25.982Z,83.59
2024-02-13T01:34:54.917Z,83.63
2024-02-13T01:37:23.141Z,83.72
2024-02-13T01:39:51.165Z,83.76
2024-02-13T01:42:19.522Z,83.63
2024-02-13T01:44:47.853Z,83.41
2024-02-13T01:47:16.184Z,83.36
2024-02-13T01:49:45.483Z,83.34
2024-02-13T01:52:14.303Z,83.20
2024-02-13T01:54:43.305Z,83.02
2024-02-13T01:57:12.504Z,83.08
2024-02-13T01:59:41.488Z,83.17
2024-02-13T02:02:11.125Z,83.16
2024-02-13T02:04:42.694Z,83.14
2024-02-13T02:07:10.859Z,83.14
2024-02-13T02:09:39.171Z,83.22
2024-02-13T02:12:08.055Z,83.32
2024-02-13T02:14:36.238Z,83.32
2024-02-13T02:17:12.023Z,83.26
2024-02-13T02:19:40.161Z,83.12
2024-02-13T02:22:09.000Z,82.98
2024-02-13T02:24:37.546Z,82.86
2024-02-13T02:27:05.760Z,82.83
2024-02-13T02:29:35.736Z,82.82
2024-02-13T02:32:05.447Z,82.66
2024-02-13T02:34:33.549Z,82.72
2024-02-13T02:37:02.894Z,82.74
2024-02-13T02:39:31.057Z,82.72
2024-02-13T02:41:59.138Z,82.82
2024-02-13T02:44:27.339Z,82.84
2024-02-13T02:46:55.679Z,82.88
2024-02-13T02:49:24.090Z,82.80
2024-02-13T02:51:52.231Z,82.79
2024-02-13T02:54:21.091Z,82.79
2024-02-13T02:56:49.229Z,82.79
2024-02-13T02:59:18.162Z,82.82
2024-02-13T03:01:48.421Z,82.74
2024-02-13T03:04:17.571Z,82.70
2024-02-13T03:06:45.684Z,82.73
2024-02-13T03:09:13.893Z,82.70
2024-02-13T03:11:43.050Z,82.69
2024-02-13T03:14:11.233Z,82.74
2024-02-13T03:16:40.501Z,82.72
2024-02-13T03:19:08.642Z,82.64
2024-02-13T03:21:37.039Z,82.57
2024-02-13T03:24:06.950Z,82.58
2024-02-13T03:26:35.217Z,82.65
2024-02-13T03:29:03.743Z,82.62
2024-02-13T03:31:31.859Z,82.58
2024-02-13T03:34:00.177Z,82.60
2024-02-13T03:36:28.698Z,82.61
2024-02-13T03:39:00.042Z,82.63
2024-02-13T03:41:28.147Z,82.67
2024-02-13T03:43:56.817Z,82.70
2024-02-13T03:46:24.973Z,82.75
2024-02-13T03:48:53.074Z,82.82
2024-02-13T03:51:21.199Z,82.86
2024-02-13T03:53:49.778Z,82.89
2024-02-13T03:56:18.578Z,82.89
2024-02-13T03:58:46.750Z,82.95
2024-02-13T04:01:15.028Z,82.95
2024-02-13T04:03:44.801Z,82.96
2024-02-13T04:06:13.660Z,82.92
2024-02-13T04:08:46.129Z,82.91
2024-02-13T04:11:15.850Z,82.96
2024-02-13T04:13:44.489Z,83.01
2024-02-13T04:16:12.736Z,83.04
2024-02-13T04:18:41.774Z,83.08
2024-02-13T04:21:18.393Z,83.09
2024-02-13T04:23:50.768Z,83.13
2024-02-13T04:26:30.348Z,83.19
2024-02-13T04:29:05.299Z,83.27
2024-02-13T04:31:33.549Z,83.31
2024-02-13T04:34:02.648Z,83.40
2024-02-13T04:36:39.142Z,83.45
2024-02-13T04:39:10.056Z,83.53
2024-02-13T04:41:38.260Z,83.63
2024-02-13T04:44:07.854Z,83.72
2024-02-13T04:46:35.872Z,83.81
2024-02-13T04:49:04.060Z,83.89
2024-02-13T04:51:32.414Z,84.01
2024-02-13T04:54:00.409Z,84.14
2024-02-13T04:56:28.632Z,84.25
2024-02-13T04:58:57.429Z,84.37
2024-02-13T05:01:26.820Z,84.51
2024-02-13T05:03:55.189Z,84.63
2024-02-13T05:06:44.786Z,84.84
2024-02-13T05:09:13.333Z,84.94
2024-02-13T05:11:41.623Z,85.04
2024-02-13T05:14:10.089Z,85.19
2024-02-13T05:16:39.714Z,85.26
2024-02-13T05:19:08.476Z,85.35
2024-02-13T05:21:37.329Z,85.44
2024-02-13T05:24:06.278Z,85.46
2024-02-13T05:26:36.349Z,85.55
2024-02-13T05:29:06.229Z,85.57
2024-02-13T05:31:36.831Z,85.61
2024-02-13T05:34:05.888Z,85.64
2024-02-13T05:36:34.701Z,85.64
2024-02-13T05:39:05.844Z,85.66
2024-02-13T05:41:34.487Z,85.69
2024-02-13T05:44:04.435Z,85.71
2024-02-13T05:46:32.608Z,85.75
2024-02-13T05:49:03.697Z,85.79
2024-02-13T05:51:31.800Z,85.81
2024-02-13T05:54:00.244Z,85.81
2024-02-13T05:56:28.953Z,85.82
2024-02-13T05:59:02.321Z,85.82
2024-02-13T06:01:32.689Z,85.81
2024-02-13T06:04:05.149Z,85.75
2024-02-13T06:06:35.672Z,85.71
2024-02-13T06:09:04.026Z,85.65
2024-02-13T06:11:34.971Z,85.61
2024-02-13T06:14:03.607Z,85.51
2024-02-13T06:16:31.663Z,85.37
2024-02-13T06:18:59.856Z,85.29
2024-02-13T06:21:29.041Z,85.22
2024-02-13T06:23:57.417Z,85.11
2024-02-13T06:26:26.694Z,85.10
2024-02-13T06:28:56.464Z,85.11
2024-02-13T06:31:24.634Z,85.17
2024-02-13T06:33:52.875Z,85.21
2024-02-13T06:36:21.136Z,85.17
2024-02-13T06:38:49.371Z,85.10
2024-02-13T06:41:17.895Z,85.00
2024-02-13T06:43:46.845Z,84.87
2024-02-13T06:46:15.532Z,84.57
2024-02-13T06:48:45.860Z,84.24
2024-02-13T06:51:14.556Z,83.93
2024-02-13T06:53:44.606Z,83.79
2024-02-13T06:56:13.851Z,83.35
2024-02-13T06:58:43.371Z,82.88
2024-02-13T07:01:14.264Z,82.42
2024-02-13T07:03:43.208Z,82.03
2024-02-13T07:06:13.807Z,81.67
2024-02-13T07:08:42.218Z,81.00
2024-02-13T07:11:12.272Z,80.11
2024-02-13T07:13:40.657Z,79.67
2024-02-13T07:16:09.211Z,79.35
2024-02-13T07:18:37.475Z,79.39
2024-02-13T07:21:08.854Z,79.46
2024-02-13T07:23:37.237Z,79.48
2024-02-13T07:26:05.496Z,79.47
2024-02-13T07:28:33.562Z,78.99
2024-02-13T07:31:01.732Z,78.47
2024-02-13T07:33:30.412Z,78.09
2024-02-13T07:36:01.659Z,78.03
2024-02-13T07:38:29.846Z,77.83
2024-02-13T07:40:59.513Z,77.44
2024-02-13T07:43:28.382Z,77.48
2024-02-13T07:45:56.458Z,77.50
2024-02-13T07:48:25.165Z,77.54
2024-02-13T07:50:55.414Z,77.64
2024-02-13T07:53:23.586Z,77.52
2024-02-13T07:55:52.075Z,77.21
2024-02-13T07:58:20.171Z,77.13
2024-02-13T08:00:48.313Z,76.90
2024-02-13T08:03:16.474Z,76.70
2024-02-13T08:05:46.885Z,76.71
2024-02-13T08:08:15.397Z,76.39
2024-02-13T08:10:44.346Z,76.38
2024-02-13T08:13:12.640Z,76.45
2024-02-13T08:15:41.143Z,76.36
2024-02-13T08:18:10.506Z,76.53
2024-02-13T08:20:38.764Z,76.33
2024-02-13T08:23:07.453Z,75.95
2024-02-13T08:25:35.867Z,76.09
2024-02-13T08:28:04.445Z,76.31
2024-02-13T08:30:32.532Z,75.79
2024-02-13T08:33:03.189Z,75.24
2024-02-13T08:35:32.346Z,75.53
2024-02-13T08:38:01.973Z,75.12
2024-02-13T08:40:30.088Z,74.57
2024-02-13T08:42:59.174Z,74.44
2024-02-13T08:45:27.276Z,74.29
2024-02-13T08:47:56.744Z,73.44
2024-02-13T08:50:25.095Z,72.75
2024-02-13T08:52:56.631Z,72.89
2024-02-13T08:55:26.944Z,73.18
2024-02-13T08:57:55.262Z,72.93
2024-02-13T09:00:23.885Z,72.61
2024-02-13T09:02:52.192Z,72.79
2024-02-13T09:05:20.421Z,73.18
2024-02-13T09:07:48.631Z,73.27
2024-02-13T09:10:16.696Z,73.21
2024-02-13T09:12:47.201Z,72.91
2024-02-13T09:15:15.611Z,73.22
2024-02-13T09:17:46.098Z,72.94
2024-02-13T09:20:23.386Z,72.93
2024-02-13T09:22:52.187Z,73.26
2024-02-13T09:25:23.353Z,73.35
2024-02-13T09:27:52.944Z,73.25
2024-02-13T09:30:21.169Z,73.28
2024-02-13T09:32:50.116Z,73.08
2024-02-13T09:35:19.312Z,72.71
2024-02-13T09:37:49.763Z,72.72
2024-02-13T09:40:19.604Z,72.09
2024-02-13T09:42:50.519Z,70.65
2024-02-13T09:45:19.451Z,70.40
2024-02-13T09:47:51.080Z,70.59
2024-02-13T09:50:20.289Z,70.05
2024-02-13T09:52:58.724Z,69.76
2024-02-13T09:55:26.927Z,69.18
2024-02-13T09:57:55.632Z,69.07
2024-02-13T10:00:24.748Z,68.62
2024-02-13T10:02:53.062Z,68.33
2024-02-13T10:05:22.845Z,68.45
2024-02-13T10:07:51.737Z,68.53
2024-02-13T10:10:20.218Z,68.57
2024-02-13T10:12:55.616Z,68.44
2024-02-13T10:15:24.257Z,68.63
2024-02-13T10:17:53.224Z,68.90
2024-02-13T10:20:21.855Z,69.04
2024-02-13T10:22:53.131Z,69.14
2024-02-13T10:25:26.064Z,68.95
2024-02-13T10:27:57.380Z,68.35
2024-02-13T10:30:28.984Z,68.72
2024-02-13T10:33:07.044Z,69.26
2024-02-13T10:35:35.874Z,69.63
2024-02-13T10:38:04.701Z,69.88
2024-02-13T10:40:35.704Z,70.00
2024-02-13T10:43:04.913Z,70.08
2024-02-13T10:45:38.639Z,70.66
2024-02-13T10:48:29.283Z,71.43
2024-02-13T10:51:00.368Z,71.58
2024-02-13T10:53:30.671Z,71.63
2024-02-13T10:55:59.094Z,71.93
2024-02-13T10:58:33.265Z,72.02
2024-02-13T11:01:04.843Z,71.25
2024-02-13T11:03:35.330Z,70.59
2024-02-13T11:06:03.569Z,69.94
2024-02-13T11:08:32.227Z,69.71
2024-02-13T11:11:05.091Z,69.37
2024-02-13T11:13:33.417Z,68.90
2024-02-13T11:16:06.066Z,68.45
2024-02-13T11:18:36.507Z,67.58
2024-02-13T11:21:10.528Z,67.36
2024-02-13T11:23:39.445Z,67.12
2024-02-13T11:26:19.312Z,66.59
2024-02-13T11:28:49.994Z,66.57
2024-02-13T11:31:19.085Z,66.20
2024-02-13T11:34:10.209Z,66.53
2024-02-13T11:36:38.774Z,66.96
2024-02-13T11:39:08.620Z,67.19
2024-02-13T11:41:37.235Z,67.22
2024-02-13T11:44:11.185Z,66.60
2024-02-13T11:46:55.702Z,66.49
2024-02-13T11:49:27.203Z,67.07
2024-02-13T11:51:56.003Z,67.62
2024-02-13T11:54:27.070Z,68.08
2024-02-13T11:56:57.396Z,68.41
2024-02-13T11:59:25.771Z,68.74
2024-02-13T12:01:54.232Z,68.85
2024-02-13T12:04:22.901Z,68.61
2024-02-13T12:06:53.237Z,68.31
2024-02-13T12:09:21.850Z,67.90
2024-02-13T12:11:51.100Z,67.81
2024-02-13T12:14:19.807Z,68.28
2024-02-13T12:16:49.103Z,68.77
2024-02-13T12:19:18.493Z,69.14
2024-02-13T12:21:47.012Z,69.34
2024-02-13T12:24:17.492Z,68.78
2024-02-13T12:26:45.602Z,68.42
2024-02-13T12:29:16.861Z,68.49
2024-02-13T12:31:49.076Z,68.51
2024-02-13T12:34:18.347Z,68.13
2024-02-13T12:36:48.323Z,67.67
2024-02-13T12:39:27.070Z,66.84
2024-02-13T12:41:59.052Z,66.34
2024-02-13T12:44:27.593Z,66.27
2024-02-13T12:46:56.448Z,66.60
2024-02-13T12:49:24.926Z,67.41
2024-02-13T12:51:54.029Z,68.30
2024-02-13T12:54:23.971Z,68.86
2024-02-13T12:56:54.374Z,69.75
2024-02-13T12:59:24.170Z,70.18
2024-02-13T13:01:55.346Z,70.50
2024-02-13T13:04:24.170Z,70.05
2024-02-13T13:06:52.970Z,69.09
2024-02-13T13:09:27.436Z,68.98
2024-02-13T13:11:57.094Z,69.03
2024-02-13T13:14:28.041Z,69.08
2024-02-13T13:16:57.775Z,69.25
2024-02-13T13:19:29.510Z,69.03
2024-02-13T13:21:59.359Z,69.12
2024-02-13T13:24:28.985Z,69.15
2024-02-13T13:26:57.564Z,69.16
2024-02-13T13:29:26.152Z,68.96
2024-02-13T13:31:54.505Z,68.97
2024-02-13T13:34:25.321Z,68.83
2024-02-13T13:36:54.254Z,68.70
2024-02-13T13:39:30.691Z,68.67
2024-02-13T13:42:09.618Z,68.74
2024-02-13T13:44:39.719Z,68.96
2024-02-13T13:47:09.288Z,69.18
2024-02-13T13:49:39.219Z,69.42
2024-02-13T13:52:08.026Z,69.73
2024-02-13T13:54:36.588Z,69.66
2024-02-13T13:57:04.920Z,69.74
2024-02-13T13:59:33.558Z,69.99
2024-02-13T14:02:02.234Z,70.20
2024-02-13T14:04:30.528Z,70.34
2024-02-13T14:06:58.653Z,70.25
2024-02-13T14:09:27.825Z,70.14
2024-02-13T14:11:55.962Z,69.60
2024-02-13T14:14:24.337Z,69.51
2024-02-13T14:16:54.803Z,69.68
2024-02-13T14:19:22.811Z,69.99
2024-02-13T14:21:50.939Z,70.32
2024-02-13T14:24:20.027Z,70.59
2024-02-13T14:26:48.081Z,70.84
2024-02-13T14:29:16.753Z,71.07
2024-02-13T14:31:45.596Z,71.47
2024-02-13T14:34:13.754Z,71.78
2024-02-13T14:36:44.245Z,72.01
2024-02-13T14:39:19.241Z,72.54
2024-02-13T14:41:55.673Z,73.30
2024-02-13T14:44:25.038Z,73.88
2024-02-13T14:46:59.198Z,74.32
2024-02-13T14:49:27.577Z,74.76
2024-02-13T14:51:56.006Z,74.79
2024-02-13T14:54:24.043Z,74.99
2024-02-13T14:56:52.255Z,75.18
2024-02-13T14:59:21.036Z,75.21
2024-02-13T15:01:49.216Z,75.37
2024-02-13T15:04:17.443Z,75.94
2024-02-13T15:06:49.745Z,76.02
2024-02-13T15:09:20.206Z,76.28
2024-02-13T15:11:48.821Z,76.23
2024-02-13T15:14:18.790Z,76.29
2024-02-13T15:16:49.680Z,76.17
2024-02-13T15:19:18.945Z,76.39
2024-02-13T15:21:47.932Z,76.30
2024-02-13T15:24:20.917Z,76.40
2024-02-13T15:26:50.710Z,76.43
2024-02-13T15:29:21.154Z,76.36
2024-02-13T15:31:49.881Z,76.34
2024-02-13T15:34:18.445Z,76.39
2024-02-13T15:37:05.166Z,76.31
2024-02-13T15:39:51.961Z,76.22
2024-02-13T15:42:44.767Z,76.20
2024-02-13T15:45:32.792Z,76.17
2024-02-13T15:48:01.119Z,76.21
2024-02-13T15:50:30.306Z,76.25
2024-02-13T15:52:58.669Z,76.33
2024-02-13T15:55:31.462Z,76.49
2024-02-13T15:57:59.877Z,76.61
2024-02-13T16:00:29.222Z,76.69
2024-02-13T16:02:58.050Z,76.77
2024-02-13T16:05:30.419Z,77.00
2024-02-13T16:07:59.692Z,77.13
2024-02-13T16:10:30.164Z,77.22
2024-02-13T16:12:59.976Z,77.37
2024-02-13T16:15:28.294Z,77.55
2024-02-13T16:17:56.457Z,77.76
2024-02-13T16:20:24.676Z,77.86
2024-02-13T16:22:52.740Z,78.08
2024-02-13T16:25:21.097Z,78.15
2024-02-13T16:27:51.568Z,78.13
2024-02-13T16:30:20.161Z,78.38
2024-02-13T16:32:48.556Z,78.62
2024-02-13T16:35:17.046Z,78.90
2024-02-13T16:37:45.226Z,78.87
2024-02-13T16:40:16.377Z,78.93
2024-02-13T16:42:44.815Z,78.89
2024-02-13T16:45:14.613Z,79.03
2024-02-13T16:47:42.913Z,79.04
2024-02-13T16:50:16.108Z,79.29
2024-02-13T16:52:44.786Z,79.45
2024-02-13T16:55:14.886Z,79.42
2024-02-13T16:57:45.633Z,79.46
2024-02-13T17:00:14.993Z,79.51
2024-02-13T17:02:43.423Z,79.39
2024-02-13T17:05:15.045Z,79.44
2024-02-13T17:07:47.029Z,79.76
2024-02-13T17:10:16.554Z,79.94
2024-02-13T17:12:44.857Z,79.98
2024-02-13T17:15:14.446Z,80.08
2024-02-13T17:17:44.038Z,80.20
2024-02-13T17:20:13.625Z,80.25
2024-02-13T17:22:42.709Z,80.37
2024-02-13T17:25:13.077Z,80.44
2024-02-13T17:27:42.894Z,80.51
2024-02-13T17:30:16.607Z,80.57
2024-02-13T17:32:46.113Z,80.52
2024-02-13T17:35:15.011Z,80.62
2024-02-13T17:37:43.190Z,80.66
2024-02-13T17:40:14.528Z,80.58
2024-02-13T17:42:42.750Z,80.55
2024-02-13T17:45:11.527Z,80.68
2024-02-13T17:47:41.481Z,80.72
2024-02-13T17:50:11.552Z,80.77
2024-02-13T17:52:40.016Z,80.85
2024-02-13T17:55:10.459Z,80.87
2024-02-13T17:57:41.742Z,80.82
2024-02-13T18:00:11.738Z,80.78
2024-02-13T18:02:40.787Z,80.70
2024-02-13T18:05:10.082Z,80.71
2024-02-13T18:07:38.536Z,80.72
2024-02-13T18:10:09.280Z,80.77
2024-02-13T18:12:44.446Z,80.98
2024-02-13T18:15:15.116Z,81.21
2024-02-13T18:17:45.127Z,81.31
2024-02-13T18:20:16.598Z,81.38
2024-02-13T18:22:45.819Z,81.50
2024-02-13T18:25:13.937Z,81.64
2024-02-13T18:27:42.563Z,81.67
2024-02-13T18:30:11.669Z,81.97
2024-02-13T18:32:39.960Z,82.30
2024-02-13T18:35:10.679Z,82.50
2024-02-13T18:37:43.463Z,82.67
2024-02-13T18:40:12.115Z,82.85
2024-02-13T18:42:40.340Z,82.94
2024-02-13T18:45:12.082Z,83.21
2024-02-13T18:47:40.769Z,83.34
2024-02-13T18:50:10.301Z,83.38
2024-02-13T18:52:38.446Z,83.43
2024-02-13T18:55:10.266Z,83.54
2024-02-13T18:57:39.007Z,83.39
2024-02-13T19:00:11.511Z,83.31
2024-02-13T19:02:41.061Z,83.15
2024-02-13T19:05:09.539Z,82.93
2024-02-13T19:07:37.794Z,82.82
2024-02-13T19:10:07.883Z,82.96
2024-02-13T19:12:36.261Z,83.09
2024-02-13T19:15:09.612Z,83.22
2024-02-13T19:17:38.410Z,83.21
2024-02-13T19:20:11.277Z,83.26
2024-02-13T19:22:40.580Z,83.33
2024-02-13T19:25:09.298Z,83.32
2024-02-13T19:27:38.633Z,83.30
2024-02-13T19:30:10.077Z,83.32
2024-02-13T19:32:42.844Z,83.38
2024-02-13T19:35:11.160Z,83.47
2024-02-13T19:37:39.451Z,83.57
2024-02-13T19:40:08.871Z,83.61
2024-02-13T19:42:37.048Z,83.54
2024-02-13T19:45:06.118Z,83.48
2024-02-13T19:47:37.837Z,83.43
2024-02-13T19:50:06.868Z,83.49
2024-02-13T19:52:37.706Z,83.50
2024-02-13T19:55:07.181Z,83.54
2024-02-13T19:57:35.301Z,83.57
2024-02-13T20:00:05.129Z,83.59
2024-02-13T20:02:33.955Z,83.72
2024-02-13T20:05:02.326Z,83.64
2024-02-13T20:07:30.631Z,83.74
2024-02-13T20:09:58.711Z,83.76
2024-02-13T20:12:28.208Z,83.80
2024-02-13T20:14:57.231Z,83.78
2024-02-13T20:17:26.110Z,83.81
2024-02-13T20:19:54.502Z,83.80
2024-02-13T20:22:22.915Z,83.78
2024-02-13T20:24:50.990Z,83.72
2024-02-13T20:27:19.051Z,83.66
2024-02-13T20:29:47.659Z,83.58
2024-02-13T20:32:16.023Z,83.51
2024-02-13T20:34:44.289Z,83.44
2024-02-13T20:37:12.608Z,83.37
2024-02-13T20:39:42.744Z,83.31
2024-02-13T20:42:12.236Z,83.25
2024-02-13T20:44:43.102Z,83.19
2024-02-13T20:47:11.912Z,83.14
2024-02-13T20:49:40.865Z,83.06
2024-02-13T20:52:09.151Z,82.98
2024-02-13T20:54:37.298Z,82.89
2024-02-13T20:57:05.778Z,82.83
2024-02-13T20:59:35.538Z,82.71
2024-02-13T21:02:04.775Z,82.60
2024-02-13T21:04:34.147Z,82.55
2024-02-13T21:07:03.204Z,82.51
2024-02-13T21:09:31.956Z,82.41
2024-02-13T21:12:00.339Z,82.36
2024-02-13T21:14:28.615Z,82.30
2024-02-13T21:16:58.277Z,82.24
2024-02-13T21:19:26.587Z,82.24
2024-02-13T21:22:13.327Z,82.19
2024-02-13T21:24:45.604Z,82.13
2024-02-13T21:27:18.619Z,81.99
2024-02-13T21:29:47.905Z,81.84
2024-02-13T21:32:16.330Z,81.73
2024-02-13T21:34:45.185Z,81.58
2024-02-13T21:37:13.801Z,81.45
2024-02-13T21:39:42.026Z,81.33
2024-02-13T21:42:11.383Z,81.27
2024-02-13T21:44:40.301Z,81.21
2024-02-13T21:47:09.179Z,81.10
2024-02-13T21:49:37.918Z,80.98
2024-02-13T21:52:06.404Z,80.83
2024-02-13T21:54:36.265Z,80.76
2024-02-13T21:57:07.756Z,80.76
2024-02-13T21:59:37.213Z,80.76
2024-02-13T22:02:05.632Z,80.71
2024-02-13T22:04:34.832Z,80.70
2024-02-13T22:07:03.628Z,80.60
2024-02-13T22:09:32.312Z,80.59
2024-02-13T22:12:04.304Z,80.57
2024-02-13T22:14:33.659Z,80.50
2024-02-13T22:17:02.949Z,80.48
2024-02-13T22:19:31.493Z,80.47
2024-02-13T22:21:59.923Z,80.43
2024-02-13T22:24:28.252Z,80.40
2024-02-13T22:26:56.471Z,80.41
2024-02-13T22:29:26.913Z,80.38
2024-02-13T22:31:55.414Z,80.41
2024-02-13T22:34:25.284Z,80.46
2024-02-13T22:36:54.131Z,80.50
2024-02-13T22:39:22.358Z,80.49
2024-02-13T22:41:50.533Z,80.49
2024-02-13T22:44:20.740Z,80.53
2024-02-13T22:46:49.032Z,80.50
2024-02-13T22:49:17.573Z,80.52
2024-02-13T22:51:45.945Z,80.48
2024-02-13T22:54:14.920Z,80.46
2024-02-13T22:56:44.518Z,80.39
2024-02-13T22:59:14.341Z,80.43
2024-02-13T23:01:43.238Z,80.40
2024-02-13T23:04:12.201Z,80.37
2024-02-13T23:06:43.270Z,80.39
2024-02-13T23:09:15.061Z,80.38
2024-02-13T23:11:45.747Z,80.39
2024-02-13T23:14:15.625Z,80.45
2024-02-13T23:16:43.877Z,80.48
2024-02-13T23:19:12.226Z,80.52
2024-02-13T23:21:40.511Z,80.57
2024-02-13T23:24:09.609Z,80.62
2024-02-13T23:26:41.610Z,80.67
2024-02-13T23:29:10.326Z,80.72
2024-02-13T23:31:39.615Z,80.79
2024-02-13T23:34:10.959Z,80.84
2024-02-13T23:36:40.624Z,80.90
2024-02-13T23:39:12.556Z,80.98
2024-02-13T23:41:41.786Z,81.04
2024-02-13T23:44:11.092Z,81.11
2024-02-13T23:46:39.208Z,81.16
2024-02-13T23:49:08.222Z,81.22
2024-02-13T23:51:38.271Z,81.29
2024-02-13T23:54:06.528Z,81.36
2024-02-13T23:56:34.959Z,81.44
2024-02-13T23:59:04.335Z,81.51
